Time;durP1;ratioP1;P1;durP2;ratioP2;P2;SDS_P1;SDS_P2;PMS_P1;PMS_P2;Temp;Humidity;BMP_temperature;BMP_pressure;BME280_temperature;BME280_humidity;BME280_pressure;Samples;Min_cycle;Max_cycle;Signal;HPM_P1;HPM_P2
2022/04/13 00:08:31;;;;;;;0.20;0.00;;;14.50;99.90;;;;;;25526477;23;20231;-76
2022/04/13 00:18:38;;;;;;;0.20;0.00;;;14.60;99.90;;;;;;25525833;23;20245;-76
2022/04/13 00:28:42;;;;;;;0.20;0.00;;;14.60;99.90;;;;;;25530781;23;20230;-76
2022/04/13 00:38:47;;;;;;;0.20;0.00;;;14.60;99.90;;;;;;25532492;23;20250;-77
2022/04/13 00:48:51;;;;;;;0.20;0.00;;;14.60;99.90;;;;;;25533398;23;20190;-76
2022/04/13 00:59:03;;;;;;;0.20;0.00;;;14.70;99.90;;;;;;25545907;23;20221;-78
2022/04/13 01:09:07;;;;;;;0.20;0.00;;;14.80;99.90;;;;;;25533889;23;20167;-77
2022/04/13 01:19:13;;;;;;;0.20;0.00;;;14.60;99.90;;;;;;25532578;23;20619;-77
2022/04/13 01:29:19;;;;;;;0.20;0.00;;;14.60;99.90;;;;;;25532646;23;20170;-76
2022/04/13 01:39:22;;;;;;;0.20;0.00;;;14.60;99.90;;;;;;25531133;23;20190;-78
2022/04/13 01:49:28;;;;;;;0.20;0.00;;;14.50;99.90;;;;;;25530634;23;20468;-77
2022/04/13 01:59:31;;;;;;;0.20;0.10;;;14.50;99.90;;;;;;25529677;23;20258;-73
2022/04/13 02:09:36;;;;;;;0.20;0.00;;;14.50;99.90;;;;;;25532955;23;20190;-72
2022/04/13 02:19:40;;;;;;;0.20;0.00;;;14.60;99.90;;;;;;25529417;23;20229;-72
2022/04/13 02:29:47;;;;;;;0.20;0.00;;;14.70;99.90;;;;;;25531398;23;20442;-76
2022/04/13 02:39:51;;;;;;;0.20;0.00;;;14.70;99.90;;;;;;25526654;23;20250;-77
2022/04/13 02:49:56;;;;;;;0.20;0.10;;;14.80;99.90;;;;;;25531170;23;20235;-78
2022/04/13 03:00:00;;;;;;;0.20;0.10;;;14.90;99.90;;;;;;25528197;23;20222;-77
2022/04/13 03:10:06;;;;;;;0.20;0.00;;;14.80;99.90;;;;;;25529871;23;20469;-77
2022/04/13 03:20:11;;;;;;;0.20;0.00;;;14.80;99.90;;;;;;25528711;23;20229;-77
2022/04/13 03:30:18;;;;;;;0.20;0.10;;;14.80;99.90;;;;;;25528231;23;20201;-72
2022/04/13 03:40:23;;;;;;;0.20;0.00;;;14.70;99.90;;;;;;25525763;23;20225;-72
2022/04/13 03:50:28;;;;;;;0.20;0.00;;;14.50;99.90;;;;;;25526865;23;20194;-72
2022/04/13 04:00:31;;;;;;;0.20;0.00;;;14.30;99.90;;;;;;25529412;23;20206;-73
2022/04/13 04:10:37;;;;;;;0.20;0.00;;;14.30;99.90;;;;;;25532853;23;20174;-72
2022/04/13 04:20:41;;;;;;;0.20;0.00;;;14.30;99.90;;;;;;25533349;23;20295;-76
2022/04/13 04:30:47;;;;;;;0.20;0.00;;;14.30;99.90;;;;;;25534295;23;20159;-76
2022/04/13 04:40:50;;;;;;;0.20;0.00;;;14.30;99.90;;;;;;25531271;23;20574;-77
2022/04/13 04:50:56;;;;;;;0.20;0.07;;;14.20;99.90;;;;;;25531008;23;20190;-78
2022/04/13 05:01:02;;;;;;;0.20;0.00;;;14.20;99.90;;;;;;25532676;23;20229;-77
2022/04/13 05:11:07;;;;;;;0.20;0.00;;;14.40;99.90;;;;;;25533123;23;20201;-79
2022/04/13 05:21:11;;;;;;;0.20;0.00;;;14.30;99.90;;;;;;25531441;23;20209;-78
2022/04/13 05:31:17;;;;;;;0.20;0.00;;;14.40;99.90;;;;;;25531282;23;20202;-79
2022/04/13 05:41:21;;;;;;;0.20;0.10;;;14.70;99.90;;;;;;25527252;23;20202;-78
2022/04/13 05:51:26;;;;;;;0.20;0.00;;;14.70;99.90;;;;;;25527697;23;20214;-72
2022/04/13 06:01:30;;;;;;;0.20;0.00;;;14.90;99.90;;;;;;25526110;23;20270;-72
2022/04/13 06:11:35;;;;;;;0.20;0.00;;;14.70;99.90;;;;;;25527771;23;20199;-72
2022/04/13 06:21:39;;;;;;;0.20;0.00;;;14.60;99.90;;;;;;25524858;23;20254;-72
2022/04/13 06:31:44;;;;;;;0.20;0.00;;;14.40;99.90;;;;;;25527466;23;20437;-71
2022/04/13 06:41:48;;;;;;;0.20;0.00;;;14.30;99.90;;;;;;25527282;23;20214;-73
2022/04/13 06:51:53;;;;;;;0.20;0.10;;;14.30;99.90;;;;;;25522028;23;20221;-77
2022/04/13 07:02:02;;;;;;;0.20;0.00;;;14.30;99.90;;;;;;25523557;23;20189;-78
2022/04/13 07:12:09;;;;;;;0.20;0.00;;;14.30;99.90;;;;;;25516081;23;20258;-80
2022/04/13 07:22:13;;;;;;;0.20;0.00;;;14.10;99.90;;;;;;25524158;23;20489;-77
2022/04/13 07:32:18;;;;;;;0.20;0.00;;;14.10;99.90;;;;;;25525077;23;20167;-75
2022/04/13 07:42:22;;;;;;;0.20;0.10;;;13.90;99.90;;;;;;25530134;23;20262;-76
2022/04/13 07:52:27;;;;;;;0.20;0.00;;;13.90;99.90;;;;;;25531991;23;20211;-75
2022/04/13 08:02:33;;;;;;;0.20;0.00;;;14.10;99.90;;;;;;25529267;23;20470;-76
2022/04/13 08:12:42;;;;;;;0.20;0.00;;;14.20;99.90;;;;;;25526203;23;20190;-71
2022/04/13 08:22:48;;;;;;;0.20;0.00;;;14.10;99.90;;;;;;25530286;23;20186;-78
2022/04/13 08:32:53;;;;;;;0.20;0.00;;;14.10;99.90;;;;;;25529453;23;20167;-77
2022/04/13 08:43:05;;;;;;;0.20;0.00;;;14.10;99.90;;;;;;25530021;23;20250;-76
2022/04/13 08:53:14;;;;;;;0.20;0.00;;;14.20;99.90;;;;;;25527437;23;20174;-77
2022/04/13 09:03:27;;;;;;;0.20;0.00;;;14.20;99.90;;;;;;25529370;23;20210;-75
2022/04/13 09:13:33;;;;;;;0.20;0.00;;;14.40;99.90;;;;;;25525775;23;20224;-74
2022/04/13 09:23:37;;;;;;;0.20;0.00;;;14.50;99.90;;;;;;25527043;23;20191;-77
2022/04/13 09:33:43;;;;;;;0.20;0.00;;;14.30;99.90;;;;;;25521654;23;20257;-76
2022/04/13 09:43:55;;;;;;;0.20;0.00;;;14.50;99.90;;;;;;25514100;23;20187;-74
2022/04/13 09:54:06;;;;;;;0.20;0.00;;;14.50;99.90;;;;;;25511954;23;20191;-75
2022/04/13 10:04:24;;;;;;;0.20;0.00;;;14.60;99.90;;;;;;25510049;23;20281;-73
2022/04/13 10:14:29;;;;;;;0.20;0.00;;;14.70;99.90;;;;;;25511711;23;20229;-74
2022/04/13 10:24:35;;;;;;;0.20;0.00;;;14.60;99.90;;;;;;25511981;23;20210;-73
2022/04/13 10:34:41;;;;;;;0.20;0.00;;;14.50;99.90;;;;;;25515459;23;20257;-74
2022/04/13 10:44:49;;;;;;;0.20;0.00;;;14.60;99.90;;;;;;25513685;23;20191;-75
2022/04/13 10:54:59;;;;;;;0.20;0.00;;;14.40;99.90;;;;;;25485496;23;20181;-75
2022/04/13 11:05:03;;;;;;;0.20;0.00;;;14.60;99.90;;;;;;25513062;23;20187;-75
2022/04/13 11:15:10;;;;;;;0.20;0.00;;;14.80;99.90;;;;;;25511439;23;20199;-75
2022/04/13 11:25:44;;;;;;;0.20;0.03;;;14.80;99.90;;;;;;25512967;23;20285;-75
2022/04/13 11:35:55;;;;;;;0.20;0.00;;;15.10;99.90;;;;;;25503614;23;20189;-77
2022/04/13 11:46:01;;;;;;;0.20;0.00;;;15.20;99.90;;;;;;25510763;23;20182;-78
2022/04/13 11:56:12;;;;;;;0.20;0.00;;;15.30;99.90;;;;;;25513479;23;20202;-78
2022/04/13 12:06:19;;;;;;;0.20;0.00;;;15.20;99.90;;;;;;25511512;23;20187;-77
2022/04/13 12:16:26;;;;;;;0.20;0.00;;;15.20;99.90;;;;;;25512574;23;20198;-80
2022/04/13 12:26:31;;;;;;;0.20;0.00;;;15.50;99.90;;;;;;25515183;23;20201;-76
2022/04/13 12:36:37;;;;;;;0.20;0.00;;;15.70;99.90;;;;;;25519772;23;20201;-75
2022/04/13 12:46:40;;;;;;;0.20;0.00;;;15.50;99.90;;;;;;25515655;23;20515;-75
2022/04/13 12:56:51;;;;;;;0.20;0.20;;;15.40;99.90;;;;;;25519865;23;20284;-74
2022/04/13 13:06:56;;;;;;;0.20;0.00;;;15.20;99.90;;;;;;25520979;23;20214;-73
2022/04/13 13:17:15;;;;;;;0.20;0.00;;;15.10;99.90;;;;;;25515593;23;20210;-75
2022/04/13 13:27:24;;;;;;;0.20;0.10;;;14.80;99.90;;;;;;25512989;23;20197;-75
2022/04/13 13:37:40;;;;;;;0.20;0.10;;;15.20;99.90;;;;;;25515906;23;20242;-74
2022/04/13 13:47:44;;;;;;;0.20;0.00;;;15.00;99.90;;;;;;25518730;23;20713;-76
2022/04/13 13:57:50;;;;;;;0.20;0.00;;;14.70;99.90;;;;;;25518694;23;20202;-76
2022/04/13 14:07:55;;;;;;;0.20;0.00;;;14.70;99.90;;;;;;25523898;23;20205;-75
2022/04/13 14:18:00;;;;;;;0.20;0.00;;;14.70;99.90;;;;;;25521481;23;20210;-76
2022/04/13 14:28:05;;;;;;;0.20;0.00;;;14.70;99.90;;;;;;25519647;23;20194;-76
2022/04/13 14:38:10;;;;;;;0.20;0.00;;;14.80;99.90;;;;;;25520279;23;20167;-74
2022/04/13 14:48:15;;;;;;;0.20;0.00;;;14.90;99.90;;;;;;25518953;23;20166;-75
2022/04/13 14:58:21;;;;;;;0.20;0.00;;;14.80;99.90;;;;;;25518045;23;20502;-75
2022/04/13 15:08:25;;;;;;;0.20;0.00;;;15.00;99.90;;;;;;25516817;23;20591;-75
2022/04/13 15:18:30;;;;;;;0.20;0.10;;;15.00;99.90;;;;;;25517970;23;20201;-70
2022/04/13 15:28:34;;;;;;;0.20;0.00;;;15.00;99.90;;;;;;25518204;23;20170;-74
2022/04/13 15:38:39;;;;;;;0.20;0.00;;;14.90;99.90;;;;;;25525117;23;20185;-75
2022/04/13 15:48:48;;;;;;;0.20;0.00;;;15.20;99.90;;;;;;25521081;23;20505;-76
2022/04/13 15:58:53;;;;;;;0.20;0.10;;;15.30;99.90;;;;;;25525569;23;20191;-78
2022/04/13 16:08:57;;;;;;;0.20;0.10;;;15.70;99.90;;;;;;25526007;23;20166;-76
2022/04/13 16:19:02;;;;;;;0.20;0.00;;;15.90;99.90;;;;;;25523629;23;20213;-76
2022/04/13 16:29:06;;;;;;;0.20;0.10;;;15.80;99.90;;;;;;25531776;23;20159;-75
2022/04/13 16:39:11;;;;;;;0.20;0.00;;;15.90;99.90;;;;;;25523813;23;20267;-77
2022/04/13 16:49:15;;;;;;;0.20;0.00;;;15.40;99.90;;;;;;25524296;23;20195;-75
2022/04/13 16:59:20;;;;;;;0.20;0.00;;;15.30;99.90;;;;;;25524918;23;20254;-77
2022/04/13 17:09:24;;;;;;;0.20;0.00;;;15.30;99.90;;;;;;25528922;23;20306;-78
2022/04/13 17:19:30;;;;;;;0.20;0.00;;;15.40;99.90;;;;;;25524196;23;20226;-76
2022/04/13 17:29:34;;;;;;;0.20;0.10;;;15.40;99.90;;;;;;25525568;23;20213;-75
2022/04/13 17:39:39;;;;;;;0.20;0.00;;;15.40;99.90;;;;;;25522067;23;20209;-73
2022/04/13 17:49:43;;;;;;;0.20;0.00;;;15.30;99.90;;;;;;25528343;23;20198;-76
2022/04/13 17:59:48;;;;;;;0.20;0.10;;;15.00;99.90;;;;;;25526641;23;20271;-74
2022/04/13 18:09:54;;;;;;;0.20;0.00;;;14.60;99.90;;;;;;25521107;23;20190;-77
2022/04/13 18:19:59;;;;;;;0.20;0.20;;;14.60;99.90;;;;;;25523239;23;20236;-77
2022/04/13 18:30:04;;;;;;;0.20;0.00;;;14.50;99.90;;;;;;25526256;23;20178;-76
2022/04/13 18:40:11;;;;;;;0.20;0.00;;;14.30;99.90;;;;;;25525952;23;20194;-75
2022/04/13 18:50:15;;;;;;;0.20;0.00;;;14.30;99.90;;;;;;25523002;23;20171;-77
2022/04/13 19:00:21;;;;;;;0.20;0.00;;;14.30;99.90;;;;;;25525737;23;20714;-79
2022/04/13 19:10:25;;;;;;;0.20;0.10;;;14.20;99.90;;;;;;25525339;23;20159;-75
2022/04/13 19:20:31;;;;;;;0.20;0.00;;;14.30;99.90;;;;;;25526657;23;20250;-71
2022/04/13 19:30:35;;;;;;;0.20;0.00;;;14.30;99.90;;;;;;25529114;23;20159;-72
2022/04/13 19:40:40;;;;;;;0.20;0.00;;;14.20;99.90;;;;;;25530734;23;20202;-71
2022/04/13 19:50:44;;;;;;;0.20;0.10;;;14.60;99.90;;;;;;25530039;23;20175;-72
2022/04/13 20:00:50;;;;;;;0.20;0.10;;;15.00;99.90;;;;;;25528712;23;20205;-71
2022/04/13 20:10:54;;;;;;;0.20;0.10;;;15.10;99.90;;;;;;25530211;23;20167;-70
2022/04/13 20:21:01;;;;;;;0.20;0.10;;;15.10;99.90;;;;;;25531085;23;20183;-73
2022/04/13 20:31:06;;;;;;;0.20;0.00;;;15.00;99.90;;;;;;25528323;23;20167;-73
2022/04/13 20:41:12;;;;;;;0.20;0.10;;;15.10;99.90;;;;;;25531165;23;20194;-71
2022/04/13 20:51:18;;;;;;;0.20;0.07;;;15.10;99.90;;;;;;25510684;23;20682;-80
2022/04/13 21:01:23;;;;;;;0.20;0.00;;;15.40;99.90;;;;;;25534909;23;20221;-81
2022/04/13 21:11:27;;;;;;;0.20;0.10;;;15.50;99.90;;;;;;25535646;23;20260;-70
2022/04/13 21:21:33;;;;;;;0.20;0.10;;;15.60;99.90;;;;;;25534009;23;20186;-70
2022/04/13 21:31:37;;;;;;;0.20;0.00;;;15.70;99.90;;;;;;25533121;23;20171;-71
2022/04/13 21:41:42;;;;;;;0.20;0.10;;;15.80;99.90;;;;;;25533689;23;20183;-70
2022/04/13 21:51:46;;;;;;;0.20;0.10;;;15.80;99.90;;;;;;25534266;23;20201;-73
2022/04/13 22:01:53;;;;;;;0.20;0.03;;;15.70;99.90;;;;;;25534714;23;20202;-72
2022/04/13 22:11:57;;;;;;;0.20;0.10;;;15.70;99.90;;;;;;25535059;23;20198;-76
2022/04/13 22:22:03;;;;;;;0.20;0.10;;;15.70;99.90;;;;;;25536311;23;20202;-72
2022/04/13 22:32:09;;;;;;;0.20;0.00;;;15.60;99.90;;;;;;25533199;23;20166;-71
2022/04/13 22:42:15;;;;;;;2.73;1.33;;;15.80;99.90;;;;;;25532386;23;20202;-72
2022/04/13 22:52:18;;;;;;;0.20;0.10;;;15.80;99.90;;;;;;25532026;23;20178;-73
2022/04/13 23:02:24;;;;;;;0.20;0.10;;;15.60;99.90;;;;;;25530889;23;20186;-71
2022/04/13 23:12:28;;;;;;;0.20;0.10;;;15.70;99.90;;;;;;25525545;23;20218;-74
2022/04/13 23:22:34;;;;;;;0.20;0.00;;;15.90;99.90;;;;;;25527551;23;20218;-76
2022/04/13 23:32:37;;;;;;;0.20;0.00;;;16.00;99.90;;;;;;25525092;23;20211;-75
2022/04/13 23:42:44;;;;;;;0.20;0.10;;;15.90;99.90;;;;;;25526335;23;20270;-74
2022/04/13 23:52:48;;;;;;;0.20;0.10;;;15.90;99.90;;;;;;25527289;23;20191;-77
